createdAt,value
2016-03-04T20:19:04.606Z,977.69
2016-03-04T20:20:04.109Z,977.7
2016-03-04T20:21:04.081Z,977.61
2016-03-04T20:22:04.084Z,977.6
2016-03-04T20:23:04.101Z,977.65
2016-03-04T20:24:04.120Z,977.61
2016-03-04T20:25:04.137Z,977.65
2016-03-04T20:26:04.140Z,977.7
2016-03-04T20:27:04.253Z,977.7
2016-03-04T20:28:04.162Z,977.66
2016-03-04T20:29:04.195Z,977.74
2016-03-04T20:30:04.198Z,977.66
2016-03-04T20:31:04.201Z,977.72
2016-03-04T20:32:04.281Z,977.75
2016-03-04T20:33:04.222Z,977.7
2016-03-04T20:34:04.241Z,977.65
2016-03-04T20:35:04.243Z,977.62
2016-03-04T20:36:04.261Z,977.54
2016-03-04T20:37:04.264Z,977.57
2016-03-04T20:38:04.283Z,977.66
2016-03-04T20:39:04.285Z,977.75
2016-03-04T20:40:06.381Z,977.8
2016-03-04T20:41:06.837Z,977.85
2016-03-04T20:42:04.325Z,977.86
2016-03-04T20:43:04.343Z,977.91
2016-03-04T20:44:04.346Z,977.87
2016-03-04T20:45:04.363Z,977.87
2016-03-04T20:47:04.384Z,977.98
2016-03-04T20:48:04.387Z,977.93
2016-03-04T20:49:04.452Z,977.95
2016-03-04T20:50:04.768Z,977.98
2016-03-04T20:51:04.457Z,978.03
2016-03-04T20:52:04.445Z,978.02
2016-03-04T20:53:04.447Z,977.98
2016-03-04T20:54:04.465Z,978.02
2016-03-04T20:55:04.485Z,977.93
2016-03-04T20:56:04.487Z,977.94
2016-03-04T20:57:04.506Z,977.98
2016-03-04T20:58:04.523Z,977.97
2016-03-04T20:59:04.526Z,978.03
2016-03-04T21:00:04.544Z,978.05
2016-03-04T21:01:04.563Z,978.09
2016-03-04T21:02:04.581Z,978.18
2016-03-04T21:03:04.600Z,978.17
2016-03-04T21:04:04.618Z,978.15
2016-03-04T21:05:04.667Z,978.16
2016-03-04T21:06:04.638Z,978.09
2016-03-04T21:07:04.657Z,978.09
2016-03-04T21:08:04.676Z,978.12
2016-03-04T21:09:05.069Z,978.04
2016-03-04T21:10:05.166Z,978
2016-03-04T21:11:04.730Z,977.96
2016-03-04T21:12:04.749Z,977.89
2016-03-04T21:13:06.751Z,977.91
2016-03-04T21:14:06.910Z,977.93
2016-03-04T21:15:04.788Z,977.93
2016-03-04T21:16:04.807Z,977.98
2016-03-04T21:17:04.841Z,978.02
2016-03-04T21:18:04.859Z,977.97
2016-03-04T21:19:04.862Z,977.99
2016-03-04T21:20:04.879Z,978.13
2016-03-04T21:21:04.898Z,978.1
2016-03-04T21:22:04.915Z,978.16
2016-03-04T21:23:04.919Z,978.19
2016-03-04T21:24:05.046Z,978.07
2016-03-04T21:25:04.956Z,978.02
2016-03-04T21:26:04.974Z,977.96
2016-03-04T21:27:05.304Z,977.99
2016-03-04T21:28:05.073Z,977.94
2016-03-04T21:29:06.060Z,977.99
2016-03-04T21:30:05.031Z,978.02
2016-03-04T21:31:05.050Z,978.05
2016-03-04T21:32:05.193Z,977.99
2016-03-04T21:33:05.086Z,977.91
2016-03-04T21:34:05.089Z,977.85
2016-03-04T21:35:05.108Z,977.86
2016-03-04T21:36:05.125Z,977.9
2016-03-04T21:37:05.894Z,977.96
2016-03-04T21:38:05.163Z,978.03
2016-03-04T21:39:05.165Z,978.04
2016-03-04T21:40:05.183Z,978.04
2016-03-04T21:41:05.201Z,978.04
2016-03-04T21:42:05.220Z,977.98
2016-03-04T21:43:05.536Z,978.03
2016-03-04T21:44:05.241Z,978.1
2016-03-04T21:45:05.260Z,978.17
2016-03-04T21:46:05.277Z,978.25
2016-03-04T21:47:05.296Z,978.21
2016-03-04T21:48:05.314Z,978.18
2016-03-04T21:49:05.332Z,978.1
2016-03-04T21:50:05.336Z,978.01
2016-03-04T21:51:05.354Z,977.94
2016-03-04T21:52:05.356Z,977.9
2016-03-04T21:53:05.374Z,978
2016-03-04T21:54:05.392Z,977.98
2016-03-04T21:55:05.412Z,978.05
2016-03-04T21:56:05.415Z,978.07
2016-03-04T21:57:05.432Z,978.05
2016-03-04T21:58:05.451Z,978.09
2016-03-04T21:59:05.469Z,978.05
2016-03-04T22:00:05.487Z,978.06
2016-03-04T22:01:05.489Z,978.08
2016-03-04T22:02:05.508Z,978.09
2016-03-04T22:03:05.527Z,978.17
2016-03-04T22:04:05.545Z,978.16
2016-03-04T22:05:05.548Z,978.14
2016-03-04T22:06:05.566Z,978.1
2016-03-04T22:07:05.584Z,978.08
2016-03-04T22:08:05.587Z,978.14
2016-03-04T22:09:05.606Z,978.1
2016-03-04T22:10:05.624Z,978.06
2016-03-04T22:11:05.627Z,978.03
2016-03-04T22:12:05.644Z,978.05
2016-03-04T22:13:05.663Z,978
2016-03-04T22:14:05.680Z,978.03
2016-03-04T22:15:05.683Z,978.09
2016-03-04T22:16:05.702Z,978.12
2016-03-04T22:17:05.721Z,978.17
2016-03-04T22:18:05.724Z,978.23
2016-03-04T22:19:05.741Z,978.24
2016-03-04T22:20:05.760Z,978.24
2016-03-04T22:21:05.778Z,978.28
2016-03-04T22:22:05.781Z,978.31
2016-03-04T22:23:05.799Z,978.26
2016-03-04T22:24:05.818Z,978.26
2016-03-04T22:25:05.820Z,978.29
2016-03-04T22:26:05.838Z,978.26
2016-03-04T22:27:05.857Z,978.31
2016-03-04T22:28:05.875Z,978.24
2016-03-04T22:29:05.893Z,978.23
2016-03-04T22:30:05.896Z,978.2
2016-03-04T22:31:05.898Z,978.16
2016-03-04T22:32:05.933Z,978.11
2016-03-04T22:33:05.936Z,978.12
2016-03-04T22:34:05.953Z,978.08
2016-03-04T22:35:05.956Z,978.06
2016-03-04T22:36:05.974Z,978.03
2016-03-04T22:37:05.993Z,978.09
2016-03-04T22:38:05.996Z,978.1
2016-03-04T22:39:06.014Z,978.12
2016-03-04T22:40:06.032Z,978.15
2016-03-04T22:41:06.035Z,978.19
2016-03-04T22:42:06.053Z,978.18
2016-03-04T22:43:06.071Z,978.18
2016-03-04T22:44:06.090Z,978.13
2016-03-04T22:45:06.093Z,978.1
2016-03-04T22:46:06.111Z,978.12
2016-03-04T22:47:06.113Z,978.09
2016-03-04T22:48:06.132Z,978.08
2016-03-04T22:49:06.150Z,978.02
2016-03-04T22:50:06.153Z,978.03
2016-03-04T22:51:06.547Z,977.98
2016-03-04T22:52:06.174Z,977.93
2016-03-04T22:53:06.208Z,977.98
2016-03-04T22:54:06.210Z,978
2016-03-04T22:55:06.213Z,977.97
2016-03-04T22:56:06.231Z,978
2016-03-04T22:57:06.250Z,978.01
2016-03-04T22:58:06.253Z,978.07
2016-03-04T22:59:06.271Z,978.1
2016-03-04T23:00:06.290Z,978.17
2016-03-04T23:01:06.292Z,978.19
2016-03-04T23:02:06.309Z,978.17
2016-03-04T23:03:06.329Z,978.07
2016-03-04T23:04:06.331Z,978
2016-03-04T23:05:06.350Z,977.97
2016-03-04T23:06:06.353Z,977.93
2016-03-04T23:07:06.370Z,977.97
2016-03-04T23:08:06.389Z,977.94
2016-03-04T23:09:06.407Z,977.96
2016-03-04T23:10:06.410Z,977.94
2016-03-04T23:11:06.428Z,977.96
2016-03-04T23:12:06.447Z,977.91
2016-03-04T23:13:06.450Z,977.83
2016-03-04T23:14:06.467Z,977.81
2016-03-04T23:15:06.470Z,977.77
2016-03-04T23:16:06.488Z,977.78
2016-03-04T23:17:06.507Z,977.74
2016-03-04T23:18:06.523Z,977.79
2016-03-04T23:19:06.527Z,977.78
2016-03-04T23:20:06.547Z,977.75
2016-03-04T23:21:06.555Z,977.74
2016-03-04T23:22:06.558Z,977.72
2016-03-04T23:23:06.575Z,977.7
2016-03-04T23:24:06.594Z,977.77
2016-03-04T23:25:06.597Z,977.75
2016-03-04T23:26:06.615Z,977.78
2016-03-04T23:27:06.618Z,977.74
2016-03-04T23:28:06.636Z,977.71
2016-03-04T23:29:06.655Z,977.66
2016-03-04T23:30:06.673Z,977.67
2016-03-04T23:31:06.676Z,977.72
2016-03-04T23:32:06.694Z,977.79
2016-03-04T23:33:06.696Z,977.83
2016-03-04T23:34:06.715Z,977.9
2016-03-04T23:35:06.732Z,977.95
2016-03-04T23:36:06.735Z,977.95
2016-03-04T23:37:06.754Z,978.02
2016-03-04T23:38:06.757Z,978.02
2016-03-04T23:39:06.775Z,978.1
2016-03-04T23:40:06.809Z,978.14
2016-03-04T23:41:06.812Z,978.28
2016-03-04T23:42:06.814Z,978.36
2016-03-04T23:43:06.833Z,978.44
2016-03-04T23:44:06.836Z,978.48
2016-03-04T23:45:06.853Z,978.5
2016-03-04T23:46:06.872Z,978.49
2016-03-04T23:47:06.875Z,978.5
2016-03-04T23:48:06.892Z,978.49
2016-03-04T23:49:06.895Z,978.49
2016-03-04T23:50:06.914Z,978.52
2016-03-04T23:51:06.932Z,978.56
2016-03-04T23:52:06.936Z,978.56
2016-03-04T23:53:06.953Z,978.59
2016-03-04T23:54:06.956Z,978.59
2016-03-04T23:55:06.974Z,978.58
2016-03-04T23:56:07.086Z,978.57
2016-03-04T23:57:06.996Z,978.6
2016-03-04T23:58:07.013Z,978.55
2016-03-04T23:59:07.032Z,978.57
